createdAt,value
2018-07-31T00:03:44.361Z,73.30
2018-07-31T00:08:28.703Z,73.60
2018-07-31T00:13:13.009Z,75.10
2018-07-31T00:17:57.295Z,74.40
2018-07-31T00:22:41.721Z,73.50
2018-07-31T00:27:26.193Z,73.40
2018-07-31T00:32:10.476Z,73.30
2018-07-31T00:36:55.831Z,72.60
2018-07-31T00:41:40.748Z,72.20
2018-07-31T00:46:24.987Z,71.70
2018-07-31T00:51:09.325Z,72.50
2018-07-31T00:55:53.710Z,74.20
2018-07-31T01:00:38.089Z,75.50
2018-07-31T01:05:22.411Z,76.30
2018-07-31T01:10:06.822Z,76.60
2018-07-31T01:14:51.103Z,77.90
2018-07-31T01:19:35.509Z,79.10
2018-07-31T01:24:19.974Z,80.50
2018-07-31T01:29:04.415Z,80.80
2018-07-31T01:33:48.658Z,81.40
2018-07-31T01:38:33.007Z,81.80
2018-07-31T01:43:17.301Z,82.10
2018-07-31T01:48:01.607Z,82.50
2018-07-31T01:52:45.928Z,82.50
2018-07-31T01:57:30.309Z,82.70
2018-07-31T02:02:14.693Z,82.30
2018-07-31T02:06:59.021Z,81.50
2018-07-31T02:11:43.356Z,80.40
2018-07-31T02:16:27.735Z,80.50
2018-07-31T02:21:11.981Z,79.90
2018-07-31T02:25:56.393Z,80.20
2018-07-31T02:35:24.587Z,80.90
2018-07-31T02:40:09.059Z,80.90
2018-07-31T02:44:53.513Z,81.00
2018-07-31T02:49:37.893Z,81.50
2018-07-31T02:54:22.237Z,81.60
2018-07-31T02:59:07.873Z,81.50
2018-07-31T03:03:52.188Z,82.00
2018-07-31T03:08:36.597Z,81.40
2018-07-31T03:13:21.073Z,80.80
2018-07-31T03:18:05.363Z,80.80
2018-07-31T03:22:49.639Z,80.80
2018-07-31T03:27:34.011Z,80.90
2018-07-31T03:32:18.280Z,81.50
2018-07-31T03:37:02.683Z,81.10
2018-07-31T03:41:47.032Z,80.70
2018-07-31T03:46:31.329Z,81.40
2018-07-31T03:51:15.615Z,81.50
2018-07-31T03:55:59.970Z,80.80
2018-07-31T04:00:44.257Z,79.70
2018-07-31T04:05:28.633Z,78.40
2018-07-31T04:10:14.741Z,77.00
2018-07-31T04:14:59.038Z,76.80
2018-07-31T04:19:43.398Z,77.60
2018-07-31T04:24:27.807Z,78.40
2018-07-31T04:29:12.084Z,78.40
2018-07-31T04:33:56.313Z,79.00
2018-07-31T04:38:40.531Z,78.40
2018-07-31T04:43:25.598Z,77.70
2018-07-31T04:48:09.843Z,76.20
2018-07-31T04:52:54.127Z,76.20
2018-07-31T04:57:38.418Z,75.60
2018-07-31T05:02:22.720Z,75.90
2018-07-31T05:07:07.049Z,75.70
2018-07-31T05:11:51.380Z,74.50
2018-07-31T05:16:35.672Z,73.60
2018-07-31T05:21:20.079Z,72.30
2018-07-31T05:26:04.594Z,72.40
2018-07-31T05:30:49.030Z,71.00
2018-07-31T05:35:34.385Z,73.10
2018-07-31T05:40:18.737Z,72.00
2018-07-31T05:45:03.020Z,70.90
2018-07-31T05:49:47.467Z,70.50
2018-07-31T05:54:31.775Z,70.00
2018-07-31T05:59:16.077Z,68.60
2018-07-31T06:04:00.667Z,68.00
2018-07-31T06:08:45.901Z,67.30
2018-07-31T06:13:30.278Z,66.10
2018-07-31T06:18:14.567Z,66.00
2018-07-31T06:22:58.955Z,65.80
2018-07-31T06:27:43.704Z,64.60
2018-07-31T06:32:28.107Z,64.10
2018-07-31T06:37:13.559Z,62.60
2018-07-31T06:41:58.077Z,61.90
2018-07-31T06:46:42.467Z,61.10
2018-07-31T06:51:26.821Z,60.40
2018-07-31T06:56:11.128Z,59.70
2018-07-31T07:00:55.396Z,58.50
2018-07-31T07:05:39.667Z,57.60
2018-07-31T07:10:23.849Z,57.20
2018-07-31T07:15:08.157Z,55.90
2018-07-31T07:19:52.537Z,55.50
2018-07-31T07:24:36.870Z,55.70
2018-07-31T07:29:21.137Z,54.40
2018-07-31T07:38:49.349Z,53.90
2018-07-31T07:43:33.691Z,52.70
2018-07-31T07:48:17.949Z,52.70
2018-07-31T07:53:02.274Z,52.80
2018-07-31T07:57:46.570Z,51.80
2018-07-31T08:02:30.921Z,51.10
2018-07-31T08:07:15.326Z,51.60
2018-07-31T08:11:59.797Z,50.30
2018-07-31T08:16:44.108Z,49.40
2018-07-31T08:21:28.623Z,48.20
2018-07-31T08:26:12.924Z,47.80
2018-07-31T08:30:57.315Z,47.00
2018-07-31T08:35:41.780Z,44.70
2018-07-31T08:40:26.373Z,44.70
2018-07-31T08:45:10.873Z,44.60
2018-07-31T08:49:55.365Z,43.90
2018-07-31T08:54:39.637Z,44.30
2018-07-31T08:59:24.351Z,42.60
2018-07-31T09:04:08.786Z,41.60
2018-07-31T09:08:53.257Z,41.60
2018-07-31T09:13:37.627Z,41.00
2018-07-31T09:18:21.907Z,40.20
2018-07-31T09:23:06.243Z,40.60
2018-07-31T09:27:50.648Z,40.20
2018-07-31T09:32:40.306Z,39.40
2018-07-31T09:37:24.801Z,39.20
2018-07-31T09:42:09.081Z,39.20
2018-07-31T09:46:53.320Z,38.90
2018-07-31T09:51:37.669Z,38.40
2018-07-31T09:56:22.169Z,38.20
2018-07-31T10:01:11.883Z,36.40
2018-07-31T10:05:56.240Z,35.90
2018-07-31T10:10:40.643Z,35.90
2018-07-31T10:15:24.840Z,35.10
2018-07-31T10:20:09.173Z,36.50
2018-07-31T10:24:53.417Z,36.10
2018-07-31T10:29:37.769Z,35.20
2018-07-31T10:34:22.208Z,35.10
2018-07-31T10:39:08.264Z,36.20
2018-07-31T10:43:52.690Z,35.20
2018-07-31T10:48:37.090Z,34.80
2018-07-31T10:53:21.470Z,34.10
2018-07-31T10:58:05.934Z,33.30
2018-07-31T11:02:50.145Z,33.40
2018-07-31T11:07:34.519Z,33.90
2018-07-31T11:12:19.018Z,33.60
2018-07-31T11:17:03.477Z,33.60
2018-07-31T11:21:47.792Z,33.10
2018-07-31T11:26:32.095Z,33.20
2018-07-31T11:31:16.490Z,32.50
2018-07-31T11:36:00.763Z,32.20
2018-07-31T11:40:45.100Z,31.00
2018-07-31T11:45:29.377Z,31.80
2018-07-31T11:50:13.687Z,31.30
2018-07-31T11:54:57.997Z,31.10
2018-07-31T11:59:42.385Z,31.40
2018-07-31T12:04:26.700Z,31.80
2018-07-31T12:09:12.635Z,31.50
2018-07-31T12:13:57.125Z,32.50
2018-07-31T12:18:41.396Z,33.30
2018-07-31T12:23:25.805Z,32.30
2018-07-31T12:28:10.161Z,31.10
2018-07-31T12:32:54.794Z,30.20
2018-07-31T12:37:39.177Z,29.90
2018-07-31T12:42:23.688Z,29.80
2018-07-31T12:47:07.983Z,29.80
2018-07-31T12:51:52.420Z,30.10
2018-07-31T12:56:36.752Z,29.70
2018-07-31T13:01:21.223Z,29.80
2018-07-31T13:06:06.355Z,30.00
2018-07-31T13:10:50.814Z,29.70
2018-07-31T13:15:35.116Z,30.30
2018-07-31T13:20:19.588Z,30.40
2018-07-31T13:25:04.194Z,30.50
2018-07-31T13:29:48.758Z,30.70
2018-07-31T13:34:33.334Z,30.70
2018-07-31T13:39:17.626Z,30.00
2018-07-31T13:44:02.053Z,30.70
2018-07-31T13:48:46.283Z,31.00
2018-07-31T13:53:30.557Z,31.60
2018-07-31T13:58:14.960Z,31.20
2018-07-31T14:02:59.273Z,30.20
2018-07-31T14:07:43.644Z,30.20
2018-07-31T14:12:27.972Z,29.70
2018-07-31T14:17:12.358Z,30.00
2018-07-31T14:21:56.654Z,30.00
2018-07-31T14:26:41.060Z,29.60
2018-07-31T14:31:25.460Z,30.00
2018-07-31T14:36:09.831Z,29.10
2018-07-31T14:40:54.154Z,29.30
2018-07-31T14:45:38.493Z,29.20
2018-07-31T14:50:22.981Z,29.40
2018-07-31T14:55:07.622Z,29.40
2018-07-31T14:59:52.186Z,29.30
2018-07-31T15:04:36.567Z,30.00
2018-07-31T15:09:20.941Z,29.90
2018-07-31T15:14:05.516Z,29.60
2018-07-31T15:18:49.835Z,29.80
2018-07-31T15:23:34.435Z,29.40
2018-07-31T15:28:18.660Z,29.20
2018-07-31T15:33:03.080Z,29.20
2018-07-31T15:37:47.483Z,29.40
2018-07-31T15:42:31.840Z,29.50
2018-07-31T15:47:16.182Z,29.90
2018-07-31T15:52:00.643Z,29.90
2018-07-31T15:56:45.129Z,29.90
2018-07-31T16:01:29.537Z,29.60
2018-07-31T16:06:14.065Z,29.30
2018-07-31T16:10:58.476Z,28.90
2018-07-31T16:15:42.883Z,29.20
2018-07-31T16:20:27.233Z,29.40
2018-07-31T16:25:11.652Z,28.60
2018-07-31T16:29:55.972Z,28.80
2018-07-31T16:34:40.420Z,28.90
2018-07-31T16:39:24.799Z,29.00
2018-07-31T16:44:09.003Z,28.10
2018-07-31T16:48:53.308Z,27.70
2018-07-31T16:53:37.590Z,28.70
2018-07-31T16:58:21.811Z,28.30
2018-07-31T17:03:06.139Z,28.50
2018-07-31T17:07:50.436Z,28.50
2018-07-31T17:12:34.829Z,28.00
2018-07-31T17:17:19.055Z,28.10
2018-07-31T17:22:03.244Z,28.70
2018-07-31T17:26:47.601Z,29.20
2018-07-31T17:31:31.979Z,28.80
2018-07-31T17:36:16.299Z,29.60
2018-07-31T17:41:00.508Z,30.50
2018-07-31T17:45:44.972Z,32.30
2018-07-31T17:50:29.314Z,33.80
2018-07-31T17:55:13.603Z,35.30
2018-07-31T17:59:57.877Z,37.40
2018-07-31T18:04:42.432Z,39.10
2018-07-31T18:09:26.722Z,38.10
2018-07-31T18:14:11.209Z,41.40
2018-07-31T18:18:55.484Z,42.70
2018-07-31T18:23:40.041Z,40.80
2018-07-31T18:28:24.454Z,42.40
2018-07-31T18:33:08.882Z,41.50
2018-07-31T18:37:53.130Z,40.90
2018-07-31T18:42:37.402Z,41.90
2018-07-31T18:47:21.749Z,41.80
2018-07-31T18:52:05.951Z,41.70
2018-07-31T18:56:50.333Z,43.80
2018-07-31T19:01:34.726Z,43.40
2018-07-31T19:11:03.895Z,44.40
2018-07-31T19:15:48.312Z,45.90
2018-07-31T19:20:32.545Z,44.20
2018-07-31T19:25:16.919Z,44.80
2018-07-31T19:30:01.320Z,48.00
2018-07-31T19:34:45.686Z,47.40
2018-07-31T19:39:30.161Z,47.50
2018-07-31T19:44:14.453Z,47.70
2018-07-31T19:48:58.835Z,47.40
2018-07-31T19:53:43.131Z,48.70
2018-07-31T19:58:27.437Z,47.70
2018-07-31T20:03:11.717Z,47.50
2018-07-31T20:07:56.022Z,47.80
2018-07-31T20:12:40.269Z,48.40
2018-07-31T20:17:24.500Z,49.20
2018-07-31T20:22:14.280Z,50.10
2018-07-31T20:26:58.588Z,49.30
2018-07-31T20:31:43.034Z,49.00
2018-07-31T20:36:27.629Z,49.60
2018-07-31T20:41:11.922Z,49.80
2018-07-31T20:45:56.270Z,51.90
2018-07-31T20:50:40.556Z,52.60
2018-07-31T20:55:24.921Z,52.40
2018-07-31T21:00:10.213Z,52.40
2018-07-31T21:04:54.630Z,52.60
2018-07-31T21:09:39.402Z,51.70
2018-07-31T21:14:23.700Z,51.70
2018-07-31T21:19:07.958Z,53.60
2018-07-31T21:23:52.239Z,53.80
2018-07-31T21:28:36.631Z,54.70
2018-07-31T21:33:20.957Z,57.50
2018-07-31T21:38:05.242Z,54.50
2018-07-31T21:42:49.466Z,54.20
2018-07-31T21:47:33.792Z,53.60
2018-07-31T21:52:18.171Z,54.50
2018-07-31T21:57:02.400Z,55.50
2018-07-31T22:01:46.719Z,55.10
2018-07-31T22:06:30.975Z,55.60
2018-07-31T22:11:15.273Z,55.50
2018-07-31T22:15:59.706Z,55.80
2018-07-31T22:20:45.134Z,56.20
2018-07-31T22:25:29.696Z,54.70
2018-07-31T22:30:14.167Z,55.80
2018-07-31T22:34:58.555Z,56.20
2018-07-31T22:39:42.829Z,57.00
2018-07-31T22:44:27.153Z,56.20
2018-07-31T22:49:11.615Z,57.30
2018-07-31T22:53:55.892Z,57.80
2018-07-31T22:58:40.402Z,58.70
2018-07-31T23:03:25.137Z,59.50
2018-07-31T23:08:09.408Z,60.60
2018-07-31T23:12:53.706Z,61.40
2018-07-31T23:17:37.944Z,61.80
2018-07-31T23:22:33.423Z,63.20
2018-07-31T23:27:17.895Z,62.80
2018-07-31T23:32:02.497Z,64.30
2018-07-31T23:36:46.958Z,62.90
2018-07-31T23:41:31.388Z,64.40
2018-07-31T23:46:15.872Z,64.90
2018-07-31T23:51:00.368Z,65.10
2018-07-31T23:55:44.786Z,65.90
